aviador You're here:

KCLI Decoded Metar

CLINTONVILLE in WI, USA
Report Time2018-07-23 15:15:00
UTC Time2018-07-23 15:39:24
Flight Rules vfr VFR
Wind020° at 05 kt
W.Decomp.*RWY 04: 4.8 kt HW 1.5 kt LCW
RWY 32: 2.3 kt HW 4.4 kt RCW
RWY 09: 1.9 kt HW 4.6 kt LCW
W.Rank020° ranks 25
Current wind is below 020° avg. (6.0)
Visibility9999 m
Phenomena:N/A
Clouds:Broken 050 Hf
Expected CloudBase > 2,800 ft AGL from Temp-Dew spread
Ceiling5,000 ft
Temp22°C (ISA +9)
Dew Point15°C (65% RH)
AAT21.9°C
QNH1016 hPa
Density Alt1,952 ft
Elevation820 ft
Report Wrong Elevation
Raw Report
KCLI 231515Z AUTO 02005KT 10SM BKN050 22/15 A2999 RMK AO2
T02240154=

Extra information for KCLI:More info

Metar Taf Metar & Taf Last 4 Metars F.Rules Stats Wind Profile Meteogram Temp Stats Airport Information Weather charts Add Link Nearby VenuesMetar ALERT Operation Metar Decoded Social comments

AIRNAV info for KCLI